Time;durP1;ratioP1;P1;durP2;ratioP2;P2;SDS_P1;SDS_P2;PMS_P1;PMS_P2;Temp;Humidity;BMP_temperature;BMP_pressure;BME280_temperature;BME280_humidity;BME280_pressure;Samples;Min_cycle;Max_cycle;Signal;HPM_P1;HPM_P2
2023/01/11 00:00:56;;;;;;;5.73;2.33;;;6.60;90.10;;;5.69;79.54;100383.78;5032698;28;20210;-69
2023/01/11 00:03:24;;;;;;;4.93;2.10;;;6.60;90.10;;;5.68;79.43;100371.50;5032901;28;20191;-70
2023/01/11 00:05:57;;;;;;;5.20;2.20;;;6.60;90.20;;;5.69;79.05;100378.47;5032206;28;20221;-70
2023/01/11 00:08:27;;;;;;;5.57;2.30;;;6.60;90.20;;;5.69;79.26;100373.16;5032237;28;20699;-70
2023/01/11 00:10:55;;;;;;;2.70;2.03;;;6.60;90.20;;;5.75;78.94;100372.63;5033017;28;20191;-70
2023/01/11 00:13:25;;;;;;;4.40;1.77;;;6.60;90.10;;;5.75;79.30;100372.63;5032236;28;20217;-69
2023/01/11 00:15:53;;;;;;;4.63;2.00;;;6.60;90.00;;;5.74;79.27;100376.25;5031980;28;20667;-69
2023/01/11 00:18:21;;;;;;;3.60;2.10;;;6.60;90.10;;;5.76;79.41;100368.97;5031997;28;20722;-69
2023/01/11 00:20:49;;;;;;;3.23;2.00;;;6.60;90.20;;;5.78;79.21;100372.34;5032066;28;20202;-69
2023/01/11 00:23:17;;;;;;;3.30;1.90;;;6.70;90.10;;;5.81;79.39;100369.41;5032360;28;20211;-69
2023/01/11 00:25:45;;;;;;;3.93;1.90;;;6.70;90.20;;;5.79;79.63;100364.22;5032176;28;20225;-69
2023/01/11 00:28:14;;;;;;;5.30;2.27;;;6.70;90.20;;;5.82;79.18;100357.81;5031997;28;20641;-69
2023/01/11 00:30:43;;;;;;;3.60;2.23;;;6.70;90.00;;;5.80;79.52;100355.28;5032044;28;20680;-69
2023/01/11 00:33:12;;;;;;;3.17;1.83;;;6.70;90.20;;;5.80;79.90;100338.50;5032242;28;20210;-69
2023/01/11 00:35:40;;;;;;;5.47;2.40;;;6.70;90.30;;;5.82;79.44;100336.56;5031778;28;20222;-69
2023/01/11 00:38:08;;;;;;;3.67;2.00;;;6.70;90.20;;;5.79;79.82;100331.53;5032008;28;20628;-68
2023/01/11 00:40:36;;;;;;;3.07;1.90;;;6.70;90.30;;;5.84;79.72;100337.25;5031996;28;20211;-69
2023/01/11 00:48:42;;;;;;;4.87;2.23;;;6.70;90.30;;;5.85;79.46;100338.94;5031426;28;20231;-69
2023/01/11 00:51:10;;;;;;;4.17;2.10;;;6.70;90.10;;;5.82;79.80;100332.06;5031983;28;20214;-69
2023/01/11 00:53:38;;;;;;;7.20;2.33;;;6.70;90.60;;;5.87;79.06;100339.66;5028037;28;20207;-69
2023/01/11 00:56:07;;;;;;;5.00;1.90;;;6.70;90.00;;;5.84;79.48;100332.78;5011689;28;20231;-70
2023/01/11 00:58:35;;;;;;;4.70;1.70;;;6.70;90.10;;;5.89;79.11;100325.25;5011909;28;20232;-69
2023/01/11 01:01:07;;;;;;;5.97;1.93;;;6.80;90.00;;;5.88;79.19;100323.59;5012018;28;20218;-69
2023/01/11 01:03:35;;;;;;;2.80;1.60;;;6.70;90.10;;;5.86;79.24;100314.91;5011603;28;20737;-69
2023/01/11 01:06:04;;;;;;;4.70;2.00;;;6.70;90.10;;;5.91;78.59;100325.97;5011612;28;20203;-68
2023/01/11 01:08:32;;;;;;;3.67;1.50;;;6.80;89.80;;;5.91;79.37;100325.13;5011199;28;20231;-68
2023/01/11 01:11:01;;;;;;;2.93;1.80;;;6.80;90.10;;;5.95;79.09;100337.16;5011454;28;20207;-69
2023/01/11 01:16:16;;;;;;;4.07;1.67;;;6.90;89.80;;;6.04;78.64;100337.13;5010998;28;20235;-69
2023/01/11 01:18:44;;;;;;;5.50;1.90;;;6.90;89.80;;;6.05;79.16;100332.66;5011267;28;20603;-69
2023/01/11 01:21:12;;;;;;;2.60;1.67;;;6.90;90.00;;;6.02;79.50;100338.28;5011547;28;20211;-69
2023/01/11 01:23:40;;;;;;;3.67;1.73;;;6.90;90.20;;;6.02;79.85;100338.28;5011690;28;20216;-69
2023/01/11 01:26:08;;;;;;;2.83;1.77;;;6.90;90.40;;;6.02;79.90;100332.97;5011096;28;20204;-69
2023/01/11 01:28:37;;;;;;;4.00;1.90;;;6.90;90.40;;;6.00;80.18;100329.59;5011185;28;20223;-69
2023/01/11 01:31:05;;;;;;;8.13;2.40;;;6.90;90.50;;;6.07;79.70;100325.38;5010517;28;20227;-69
2023/01/11 01:33:35;;;;;;;4.23;1.63;;;6.90;90.30;;;6.07;79.62;100314.75;5010982;28;20699;-70
2023/01/11 01:36:05;;;;;;;4.03;1.90;;;6.90;90.30;;;6.06;80.09;100313.09;5010723;28;20207;-69
2023/01/11 01:38:33;;;;;;;6.63;2.00;;;6.90;90.40;;;6.09;80.28;100307.50;5011092;28;20230;-69
2023/01/11 01:41:01;;;;;;;3.70;1.90;;;6.90;90.40;;;6.07;79.97;100314.75;5011009;28;20763;-69
2023/01/11 01:43:50;;;;;;;6.23;2.00;;;7.00;90.50;;;6.10;79.94;100314.47;5010480;28;20215;-69
2023/01/11 01:46:21;;;;;;;3.57;1.80;;;7.00;90.50;;;6.09;80.02;100294.22;5010863;28;20207;-70
2023/01/11 01:48:56;;;;;;;3.47;1.70;;;7.00;90.50;;;6.07;80.28;100293.50;5010690;28;20239;-68
2023/01/11 01:51:31;;;;;;;2.30;1.67;;;6.90;90.50;;;6.06;80.81;100286.53;5011001;28;20203;-69
2023/01/11 01:54:06;;;;;;;3.07;1.60;;;6.90;90.80;;;6.13;80.47;100276.97;5017313;28;20471;-69
2023/01/11 01:56:42;;;;;;;2.80;1.60;;;7.00;90.70;;;6.09;80.50;100276.44;5030288;28;20245;-69
2023/01/11 01:59:16;;;;;;;3.90;1.63;;;7.00;90.70;;;6.11;80.38;100282.44;5030350;28;20210;-68
2023/01/11 02:01:48;;;;;;;3.30;1.50;;;7.00;90.60;;;6.09;81.12;100275.59;5030934;28;20206;-69
2023/01/11 02:04:25;;;;;;;3.97;1.70;;;7.00;90.80;;;6.06;80.88;100278.56;5030181;28;20233;-70
2023/01/11 02:07:04;;;;;;;3.70;1.77;;;6.90;90.80;;;6.08;81.09;100276.56;5029855;28;20206;-70
2023/01/11 02:09:44;;;;;;;2.60;1.60;;;7.00;90.90;;;6.09;81.01;100272.94;5030317;28;20265;-70
2023/01/11 02:12:12;;;;;;;3.53;1.80;;;6.90;91.00;;;6.07;81.60;100261.59;5018423;28;20318;-69
2023/01/11 02:14:44;;;;;;;4.67;1.90;;;6.90;91.00;;;6.09;81.29;100259.66;5010197;28;20204;-69
2023/01/11 02:17:13;;;;;;;4.23;1.90;;;7.00;91.00;;;6.09;80.92;100251.69;5010287;28;20227;-69
2023/01/11 02:19:59;;;;;;;2.87;1.70;;;7.00;91.00;;;6.10;81.27;100250.69;5010571;28;20222;-69
2023/01/11 02:23:16;;;;;;;3.50;1.80;;;7.00;91.20;;;6.08;80.93;100256.16;5009986;28;20208;-70
2023/01/11 02:26:35;;;;;;;2.43;1.90;;;7.00;90.90;;;6.09;81.18;100254.34;5009912;28;20636;-68
2023/01/11 02:29:13;;;;;;;2.73;1.57;;;7.00;91.00;;;6.09;81.10;100249.03;5009847;28;20238;-68
2023/01/11 02:31:51;;;;;;;4.30;1.60;;;7.00;91.00;;;6.09;81.34;100236.59;5009898;28;20203;-68
2023/01/11 02:34:36;;;;;;;4.07;1.73;;;7.00;91.00;;;6.12;81.25;100235.44;5009924;28;20207;-68
2023/01/11 02:37:27;;;;;;;5.03;1.77;;;7.00;91.10;;;6.11;81.23;100228.44;5009801;28;20215;-68
2023/01/11 02:40:11;;;;;;;4.27;2.00;;;7.00;91.00;;;6.11;81.07;100225.78;5028031;28;20326;-69
2023/01/11 02:45:52;;;;;;;3.37;1.93;;;7.00;90.90;;;6.11;80.92;100221.31;5029138;28;20210;-69
2023/01/11 02:48:31;;;;;;;7.90;2.17;;;7.00;91.00;;;6.15;80.71;100211.25;5029945;28;20276;-69
2023/01/11 02:51:09;;;;;;;4.70;1.87;;;7.00;90.90;;;6.17;81.19;100211.91;5029362;28;20203;-69
2023/01/11 02:53:46;;;;;;;2.93;1.83;;;7.00;90.90;;;6.19;80.99;100207.31;5025799;28;20261;-70
2023/01/11 02:56:20;;;;;;;2.77;1.73;;;7.00;90.90;;;6.22;80.97;100191.06;5009567;28;20223;-68
2023/01/11 02:58:52;;;;;;;5.17;2.10;;;7.10;90.80;;;6.23;80.67;100192.75;5009994;28;20227;-69
2023/01/11 03:01:22;;;;;;;3.40;1.53;;;7.10;90.90;;;6.25;80.83;100196.09;5009873;28;20203;-69
2023/01/11 03:03:51;;;;;;;3.93;1.90;;;7.10;90.90;;;6.33;80.45;100182.06;5009623;28;20710;-68
2023/01/11 03:06:25;;;;;;;2.90;1.80;;;7.20;90.70;;;6.39;80.44;100177.00;5009376;28;20210;-69
2023/01/11 03:09:19;;;;;;;3.27;1.87;;;7.30;90.60;;;6.38;80.70;100190.44;5009149;28;20226;-70
2023/01/11 03:15:18;;;;;;;3.13;1.53;;;7.30;90.80;;;6.45;80.70;100197.69;5009554;28;20199;-68
2023/01/11 03:18:04;;;;;;;2.77;1.50;;;7.30;90.70;;;6.56;80.00;100178.88;5009368;28;20246;-68
2023/01/11 03:20:38;;;;;;;3.00;1.50;;;7.40;90.60;;;6.51;80.53;100182.94;5015118;28;20670;-69
2023/01/11 03:23:19;;;;;;;2.53;1.43;;;7.40;90.60;;;6.56;80.35;100184.19;5029050;28;20206;-69
2023/01/11 03:26:02;;;;;;;3.30;1.40;;;7.40;90.60;;;6.57;80.14;100171.75;5020615;28;20623;-69
2023/01/11 03:28:39;;;;;;;2.03;1.40;;;7.40;91.00;;;6.56;80.50;100154.94;5009258;28;20231;-70
2023/01/11 03:31:17;;;;;;;3.83;1.80;;;7.40;90.70;;;6.56;80.52;100157.59;5008933;28;20214;-69
2023/01/11 03:34:00;;;;;;;3.87;1.77;;;7.40;90.70;;;6.63;80.09;100153.34;5009359;28;20254;-69
2023/01/11 03:36:39;;;;;;;2.87;1.90;;;7.50;90.50;;;6.66;80.22;100159.34;5009158;28;20231;-70
2023/01/11 03:39:18;;;;;;;2.83;1.60;;;7.50;90.60;;;6.70;79.93;100156.25;5009340;28;20262;-69
2023/01/11 03:41:51;;;;;;;4.30;1.90;;;7.50;90.50;;;6.73;80.03;100158.63;5009734;28;20254;-69
2023/01/11 03:44:22;;;;;;;2.97;1.90;;;7.60;90.50;;;6.75;79.85;100151.31;5009529;28;20668;-69
2023/01/11 03:46:58;;;;;;;3.23;1.87;;;7.60;90.30;;;6.76;79.72;100149.47;5009629;28;20203;-69
2023/01/11 03:49:35;;;;;;;2.70;1.70;;;7.60;90.30;;;6.78;79.79;100155.50;5009213;28;20227;-70
2023/01/11 03:52:09;;;;;;;2.37;1.47;;;7.60;90.30;;;6.78;79.89;100144.88;5009811;28;20200;-70
2023/01/11 03:54:38;;;;;;;3.13;1.67;;;7.60;90.40;;;6.78;79.93;100145.69;5021228;28;20207;-69
2023/01/11 03:57:13;;;;;;;1.93;1.60;;;7.60;90.40;;;6.79;80.02;100146.53;5028680;28;20714;-70
2023/01/11 03:59:41;;;;;;;2.10;1.50;;;7.60;90.50;;;6.80;79.97;100145.53;5028836;28;20562;-70
2023/01/11 04:02:16;;;;;;;2.20;1.77;;;7.60;90.40;;;6.82;79.98;100138.22;5028814;28;20203;-70
2023/01/11 04:04:46;;;;;;;2.27;1.90;;;7.70;90.80;;;6.83;80.09;100147.91;5029083;28;20237;-69
2023/01/11 04:07:15;;;;;;;1.67;1.40;;;7.60;90.50;;;6.83;80.03;100140.75;5028666;28;20227;-69
2023/01/11 04:09:43;;;;;;;2.00;1.50;;;7.60;90.40;;;6.88;79.68;100135.00;5028861;28;20210;-69
2023/01/11 04:12:11;;;;;;;3.47;1.60;;;7.70;90.30;;;6.89;79.96;100140.16;5029034;28;20214;-69
2023/01/11 04:14:39;;;;;;;3.00;1.80;;;7.70;90.30;;;6.89;79.80;100131.31;5028515;28;20354;-70
2023/01/11 04:17:08;;;;;;;2.77;1.60;;;7.70;90.40;;;6.89;80.20;100136.66;5028422;28;20376;-70
2023/01/11 04:19:36;;;;;;;3.27;1.60;;;7.70;90.50;;;6.95;79.69;100136.06;5029049;28;20296;-70
2023/01/11 04:22:06;;;;;;;2.33;1.80;;;7.80;90.30;;;6.99;79.62;100130.25;5032249;28;20629;-70
2023/01/11 04:24:34;;;;;;;3.87;2.07;;;7.80;90.20;;;6.96;79.92;100140.38;5032047;28;20556;-70
2023/01/11 04:27:02;;;;;;;3.83;1.70;;;7.80;90.30;;;6.99;79.67;100145.38;5031708;28;20811;-70
2023/01/11 04:29:30;;;;;;;2.67;1.63;;;7.80;90.20;;;7.02;79.57;100139.78;5031724;28;20649;-70
2023/01/11 04:31:58;;;;;;;3.43;1.70;;;7.90;90.30;;;7.01;79.61;100140.78;5031874;28;20237;-70
2023/01/11 04:34:26;;;;;;;2.73;1.70;;;7.90;90.30;;;6.99;79.83;100137.41;5031773;28;20214;-69
2023/01/11 04:36:54;;;;;;;1.70;1.47;;;7.80;90.30;;;6.98;80.20;100138.41;5031715;28;20230;-70
2023/01/11 04:39:24;;;;;;;3.40;2.00;;;7.80;90.40;;;6.93;80.54;100143.34;5031623;28;20207;-70
2023/01/11 04:44:37;;;;;;;2.20;1.90;;;7.70;90.50;;;6.90;80.43;100138.31;5031655;28;20641;-70
2023/01/11 04:47:06;;;;;;;3.70;1.80;;;7.80;90.60;;;6.92;80.54;100146.97;5031516;28;20240;-70
2023/01/11 04:49:34;;;;;;;4.23;2.03;;;7.70;90.60;;;6.95;80.32;100141.38;5031667;28;20206;-69
2023/01/11 04:52:02;;;;;;;2.50;1.90;;;7.80;90.40;;;6.91;80.49;100140.00;5031779;28;20214;-70
2023/01/11 04:54:31;;;;;;;2.47;1.80;;;7.80;90.60;;;6.91;80.44;100134.69;5020755;28;20277;-69
2023/01/11 04:56:59;;;;;;;3.17;1.60;;;7.70;90.60;;;6.92;80.44;100139.00;5011690;28;20722;-70
2023/01/11 04:59:27;;;;;;;2.33;1.70;;;7.80;90.60;;;6.96;80.26;100145.69;5011601;28;20218;-70
2023/01/11 05:01:55;;;;;;;2.73;1.83;;;7.80;90.60;;;6.98;80.56;100127.78;5011552;28;20215;-69
2023/01/11 05:04:23;;;;;;;2.77;1.90;;;7.80;90.50;;;7.02;80.31;100121.16;5011477;28;20262;-69
2023/01/11 05:06:52;;;;;;;2.97;2.00;;;7.80;90.60;;;7.04;80.44;100135.13;5011245;28;20223;-70
2023/01/11 05:09:20;;;;;;;3.90;1.60;;;7.90;90.60;;;7.02;80.61;100121.97;5011598;28;20292;-69
2023/01/11 05:11:50;;;;;;;2.80;2.17;;;7.90;91.10;;;7.02;80.55;100131.81;5014564;28;20203;-69
2023/01/11 05:14:18;;;;;;;2.53;2.07;;;7.80;90.70;;;7.04;80.48;100124.50;5031203;28;20221;-69
2023/01/11 05:16:46;;;;;;;3.43;2.10;;;7.90;90.70;;;7.05;80.68;100126.97;5030625;28;20227;-71
2023/01/11 05:19:16;;;;;;;3.60;1.90;;;7.90;90.70;;;7.11;80.65;100120.25;5031090;28;20729;-70
2023/01/11 05:21:44;;;;;;;3.67;2.33;;;8.00;90.60;;;7.12;81.13;100120.06;5028502;28;20214;-69
2023/01/11 05:24:15;;;;;;;3.13;2.00;;;8.00;90.90;;;7.07;81.84;100124.19;5014066;28;20215;-70
2023/01/11 05:26:45;;;;;;;3.77;2.03;;;7.90;91.20;;;7.06;82.19;100118.03;5011476;28;20199;-70
2023/01/11 05:29:17;;;;;;;4.53;1.90;;;7.90;91.50;;;7.03;82.80;100133.47;5010956;28;20211;-70
2023/01/11 05:31:45;;;;;;;3.87;1.80;;;7.90;91.80;;;7.03;82.68;100114.81;5010281;28;20573;-71
2023/01/11 05:34:16;;;;;;;4.43;2.10;;;7.80;91.80;;;7.01;82.83;100116.81;5010934;28;20254;-71
2023/01/11 05:36:44;;;;;;;7.03;2.40;;;7.80;92.00;;;7.03;82.98;100126.31;5010637;28;20219;-69
2023/01/11 05:39:14;;;;;;;3.67;2.10;;;7.80;91.90;;;6.99;83.56;100126.75;5010892;28;20207;-69
2023/01/11 05:41:43;;;;;;;3.43;2.20;;;7.90;92.20;;;7.00;83.52;100107.16;5011058;28;20573;-69
2023/01/11 05:47:07;;;;;;;3.83;2.07;;;7.80;92.10;;;7.03;83.40;100101.53;4975168;28;20227;-70
2023/01/11 05:49:35;;;;;;;6.27;2.27;;;7.90;92.10;;;7.04;83.63;100114.69;5010509;28;20707;-70
2023/01/11 05:52:04;;;;;;;3.73;1.70;;;7.90;92.10;;;7.03;83.44;100106.84;5010981;28;20218;-71
2023/01/11 05:54:32;;;;;;;5.47;2.30;;;7.80;92.20;;;7.08;83.18;100105.41;5010542;28;20598;-71
2023/01/11 05:57:00;;;;;;;3.63;2.13;;;7.90;92.10;;;7.07;83.35;100102.91;5010516;28;20228;-69
2023/01/11 05:59:29;;;;;;;4.00;2.00;;;7.90;92.10;;;7.03;83.78;100117.50;5010552;28;20273;-69
2023/01/11 06:01:59;;;;;;;2.63;1.80;;;7.90;92.20;;;7.02;83.43;100111.31;5010583;28;20695;-69
2023/01/11 06:04:27;;;;;;;2.40;2.03;;;7.90;92.30;;;7.10;83.23;100107.91;5010670;28;20732;-69
2023/01/11 06:06:55;;;;;;;2.53;2.03;;;7.90;92.10;;;7.08;83.38;100115.22;5010411;28;20211;-69
2023/01/11 06:09:23;;;;;;;7.10;2.13;;;7.90;92.20;;;7.06;83.75;100106.53;5010796;28;20187;-69
2023/01/11 06:11:51;;;;;;;2.53;1.90;;;7.90;92.30;;;7.10;83.48;100111.41;5010599;28;20204;-69
2023/01/11 06:14:20;;;;;;;2.77;1.80;;;7.90;92.20;;;7.06;83.75;100103.88;5010738;28;20218;-69
2023/01/11 06:16:49;;;;;;;3.40;1.80;;;7.90;92.40;;;7.08;83.78;100105.41;5009609;28;20726;-69
2023/01/11 06:19:18;;;;;;;2.23;1.90;;;7.90;92.40;;;7.04;84.32;100121.84;5010410;28;20235;-69
2023/01/11 06:21:46;;;;;;;2.57;1.80;;;7.90;92.60;;;7.04;84.08;100108.53;5010360;28;20231;-69
2023/01/11 06:24:14;;;;;;;2.13;1.83;;;7.80;92.60;;;7.00;84.59;100107.16;5010603;28;20208;-69
2023/01/11 06:26:42;;;;;;;3.20;1.77;;;7.80;92.80;;;6.98;84.70;100114.47;4995781;28;20219;-69
2023/01/11 06:29:10;;;;;;;3.67;1.87;;;7.80;92.90;;;6.96;85.06;100121.75;4990679;28;20232;-69
2023/01/11 06:31:38;;;;;;;4.13;2.00;;;7.80;93.10;;;6.96;85.29;100116.44;4990388;28;20212;-69
2023/01/11 06:34:08;;;;;;;4.13;2.00;;;7.80;93.20;;;6.91;85.67;100098.28;4990760;28;20213;-69
2023/01/11 06:36:37;;;;;;;2.37;1.50;;;7.70;93.40;;;6.90;85.76;100101.06;4990582;28;20259;-69
2023/01/11 06:39:06;;;;;;;1.90;1.73;;;7.70;93.50;;;6.87;86.11;100099.56;4990377;28;20239;-69
2023/01/11 06:41:34;;;;;;;2.53;1.60;;;7.70;93.60;;;6.90;85.92;100095.75;4990780;28;20216;-70
2023/01/11 06:44:02;;;;;;;3.17;1.70;;;7.70;93.60;;;6.90;86.01;100101.06;4989641;28;20684;-70
2023/01/11 06:46:30;;;;;;;3.17;1.90;;;7.70;93.60;;;6.88;86.33;100105.72;4990348;28;20216;-70
2023/01/11 06:48:58;;;;;;;2.60;2.40;;;7.70;93.80;;;6.88;86.29;100111.88;4989733;28;20274;-69
2023/01/11 06:51:27;;;;;;;3.07;2.00;;;7.70;93.80;;;6.90;86.34;100111.72;4990458;28;20209;-70
2023/01/11 06:53:55;;;;;;;2.77;1.90;;;7.70;93.80;;;6.92;86.43;100117.72;5002209;28;20292;-70
2023/01/11 06:56:23;;;;;;;2.67;1.73;;;7.80;93.80;;;6.90;86.40;100112.56;5029225;28;20209;-69
2023/01/11 06:58:52;;;;;;;3.07;1.93;;;7.70;93.90;;;6.92;86.25;100112.38;5029375;28;20230;-69
2023/01/11 07:01:20;;;;;;;3.20;1.60;;;7.70;93.90;;;6.93;86.60;100106.09;5029446;28;20218;-70
2023/01/11 07:03:48;;;;;;;1.77;1.63;;;7.80;93.90;;;6.91;86.76;100103.59;5029198;28;20675;-70
2023/01/11 07:06:16;;;;;;;1.73;1.60;;;7.70;94.00;;;6.92;86.79;100107.06;5028895;28;20207;-69
2023/01/11 07:08:45;;;;;;;2.10;1.50;;;7.80;94.10;;;6.96;86.84;100106.63;5029530;28;20234;-69
2023/01/11 07:11:14;;;;;;;2.37;1.93;;;7.80;94.00;;;6.97;86.56;100108.31;5029642;28;20213;-68
2023/01/11 07:13:42;;;;;;;2.43;2.20;;;7.80;94.00;;;7.03;86.51;100098.84;5029439;28;20218;-68
2023/01/11 07:16:10;;;;;;;2.60;1.67;;;7.80;93.90;;;7.02;86.43;100106.00;5028994;28;20206;-68
2023/01/11 07:18:38;;;;;;;3.73;1.73;;;7.80;93.80;;;7.04;86.46;100109.38;5028940;28;20321;-68
2023/01/11 07:21:06;;;;;;;1.60;1.50;;;7.90;93.90;;;7.07;86.21;100114.38;5029411;28;20630;-68
2023/01/11 07:23:34;;;;;;;2.00;1.70;;;7.90;94.20;;;7.09;86.50;100122.19;5029130;28;20667;-68
2023/01/11 07:26:04;;;;;;;2.20;1.60;;;7.90;93.90;;;7.12;86.38;100119.25;5029131;28;20210;-69
2023/01/11 07:28:32;;;;;;;1.90;1.80;;;7.90;93.80;;;7.11;86.36;100112.25;5028991;28;20615;-68
2023/01/11 07:31:00;;;;;;;1.77;1.50;;;7.90;93.80;;;7.13;86.18;100113.75;5029180;28;20210;-68
2023/01/11 07:33:28;;;;;;;1.80;1.50;;;7.90;93.70;;;7.13;86.16;100107.59;5009482;28;20223;-69
2023/01/11 07:35:59;;;;;;;2.33;1.50;;;8.00;93.70;;;7.17;86.18;100114.28;5009380;28;20250;-69
2023/01/11 07:38:28;;;;;;;1.93;1.73;;;8.00;93.70;;;7.15;86.23;100118.94;5009417;28;20232;-70
2023/01/11 07:40:56;;;;;;;3.50;2.27;;;7.90;93.70;;;7.20;85.82;100119.31;5009853;28;20703;-69
2023/01/11 07:43:25;;;;;;;3.07;1.63;;;8.00;93.60;;;7.20;86.08;100118.47;5009356;28;20215;-68
2023/01/11 07:45:53;;;;;;;2.03;1.70;;;8.00;93.70;;;7.18;86.45;100117.78;5009224;28;20207;-69
2023/01/11 07:48:25;;;;;;;2.27;1.70;;;8.00;93.80;;;7.16;86.34;100127.78;5009521;28;20255;-68
2023/01/11 07:50:54;;;;;;;3.03;1.73;;;8.00;93.90;;;7.14;86.69;100122.59;5009494;28;20202;-69
2023/01/11 07:53:24;;;;;;;3.63;1.80;;;7.90;94.40;;;7.15;86.64;100126.94;5011315;28;20226;-68
2023/01/11 07:55:54;;;;;;;2.20;1.80;;;7.90;94.00;;;7.14;87.01;100126.09;5032312;28;20229;-68
2023/01/11 07:58:25;;;;;;;2.37;1.80;;;7.90;94.10;;;7.14;87.28;100125.25;5032512;28;20242;-68
2023/01/11 08:00:53;;;;;;;3.23;2.10;;;7.90;94.10;;;7.14;86.85;100127.91;5032797;28;20207;-69
2023/01/11 08:03:21;;;;;;;2.87;1.80;;;7.90;94.20;;;7.11;87.20;100126.41;5032541;28;20655;-69
2023/01/11 08:05:51;;;;;;;2.40;1.83;;;7.90;94.30;;;7.11;87.81;100133.53;5032601;28;20197;-68
2023/01/11 08:08:19;;;;;;;3.10;1.90;;;8.00;94.50;;;7.11;87.75;100126.41;5032101;28;20227;-69
2023/01/11 08:14:37;;;;;;;3.50;2.13;;;8.00;94.60;;;7.14;87.38;100119.94;5032552;28;20213;-69
2023/01/11 08:16:26;;;;;;;2.23;2.00;;;7.90;94.60;;;7.13;88.04;100120.91;5032072;28;20206;-69
2023/01/11 08:18:54;;;;;;;4.60;2.10;;;7.90;95.10;;;7.16;88.22;100122.44;5032401;28;20234;-69
2023/01/11 08:21:22;;;;;;;3.57;1.97;;;7.90;94.80;;;7.16;88.00;100120.59;5032352;28;20582;-68
2023/01/11 08:23:52;;;;;;;2.77;2.00;;;8.00;94.80;;;7.18;87.87;100123.97;5032195;28;20233;-68
2023/01/11 08:26:22;;;;;;;2.60;2.00;;;8.00;94.60;;;7.21;87.61;100115.66;5032139;28;20191;-69
2023/01/11 08:28:52;;;;;;;2.17;1.97;;;8.00;94.60;;;7.21;87.72;100120.97;5031952;28;20706;-69
2023/01/11 08:31:21;;;;;;;2.40;2.20;;;8.00;94.70;;;7.23;88.02;100123.47;5031937;28;20206;-68
2023/01/11 08:33:49;;;;;;;5.20;2.73;;;8.00;94.80;;;7.24;88.18;100123.34;5032066;28;20694;-70
2023/01/11 08:36:18;;;;;;;2.87;2.60;;;8.00;94.80;;;7.25;88.44;100134.81;5031989;28;20218;-68
2023/01/11 08:38:46;;;;;;;5.63;2.77;;;8.10;94.90;;;7.24;88.44;100139.31;5032072;28;20226;-68
2023/01/11 08:41:14;;;;;;;3.37;3.00;;;8.00;95.00;;;7.29;88.33;100139.69;5031742;28;20214;-68
2023/01/11 08:43:42;;;;;;;3.20;2.80;;;8.10;94.90;;;7.32;88.27;100138.53;5031797;28;20624;-69
2023/01/11 08:46:12;;;;;;;3.43;2.67;;;8.10;94.90;;;7.35;88.13;100139.06;5031625;28;20210;-70
2023/01/11 08:48:40;;;;;;;3.00;2.70;;;8.20;94.70;;;7.31;88.24;100137.72;5031818;28;20266;-69
2023/01/11 08:51:08;;;;;;;3.40;3.10;;;8.10;94.90;;;7.35;88.20;100144.41;5031947;28;20225;-69
2023/01/11 08:53:36;;;;;;;3.23;2.57;;;8.20;94.90;;;7.38;88.07;100141.44;5028208;28;20223;-69
2023/01/11 08:56:05;;;;;;;2.33;2.00;;;8.20;94.90;;;7.39;88.47;100145.78;5011853;28;20215;-68
2023/01/11 08:58:33;;;;;;;2.73;1.87;;;8.20;94.90;;;7.40;88.23;100147.44;5011882;28;20235;-71
2023/01/11 09:01:03;;;;;;;1.93;1.70;;;8.20;94.80;;;7.42;88.23;100153.44;5011941;28;20215;-71
2023/01/11 09:03:33;;;;;;;2.43;1.70;;;8.20;95.00;;;7.45;88.36;100150.47;5011973;28;20207;-69
2023/01/11 09:06:01;;;;;;;1.60;1.50;;;8.30;94.90;;;7.49;88.23;100157.16;5010647;28;20207;-69
2023/01/11 09:08:30;;;;;;;3.20;1.80;;;8.30;94.90;;;7.54;87.89;100149.53;5011322;28;20219;-69
2023/01/11 09:10:58;;;;;;;2.80;1.90;;;8.30;94.70;;;7.51;87.92;100157.00;5011874;28;20222;-69
2023/01/11 09:13:27;;;;;;;3.67;2.20;;;8.30;94.70;;;7.57;88.01;100165.19;5011761;28;20207;-68
2023/01/11 09:15:56;;;;;;;2.83;2.58;;;8.40;94.70;;;7.56;87.83;100166.22;5010136;28;20820;-68
2023/01/11 09:18:25;;;;;;;2.50;2.30;;;8.30;94.70;;;7.58;87.81;100161.56;5010312;28;20431;-69
2023/01/11 09:20:55;;;;;;;3.60;2.75;;;8.40;95.00;;;7.60;87.94;100164.88;5010143;28;20558;-68
2023/01/11 09:23:23;;;;;;;3.15;2.50;;;8.40;94.70;;;7.63;87.98;100159.28;5010486;28;20409;-68
2023/01/11 09:25:51;;;;;;;3.67;2.60;;;8.40;94.70;;;7.60;88.07;100159.56;5009912;28;20947;-69
2023/01/11 09:28:19;;;;;;;3.13;2.60;;;8.40;94.70;;;7.65;87.89;100164.44;5010369;28;20411;-69
2023/01/11 09:30:48;;;;;;;3.50;2.42;;;8.50;94.70;;;7.69;87.79;100159.63;5010138;28;20479;-69
2023/01/11 09:33:16;;;;;;;2.88;2.30;;;8.50;94.70;;;7.65;88.11;100165.28;5010483;28;20408;-69
2023/01/11 09:35:45;;;;;;;2.80;1.80;;;8.50;94.70;;;7.74;87.92;100170.69;5010151;28;20501;-69
2023/01/11 09:38:14;;;;;;;2.55;1.75;;;8.50;94.70;;;7.80;87.71;100175.38;5010126;28;20424;-69
2023/01/11 09:40:59;;;;;;;3.70;1.70;;;8.60;94.60;;;7.82;87.44;100178.72;5009969;28;20431;-71
2023/01/11 09:43:30;;;;;;;2.22;1.50;;;8.60;94.60;;;7.88;87.60;100167.41;5009680;28;20413;-70
2023/01/11 09:46:07;;;;;;;3.00;2.13;;;8.60;94.50;;;7.92;87.36;100177.63;5009815;28;20409;-69
2023/01/11 09:48:43;;;;;;;4.45;3.78;;;8.70;94.50;;;7.99;87.42;100160.00;5009819;28;20404;-69
2023/01/11 09:51:14;;;;;;;2.55;2.05;;;8.80;94.40;;;8.05;86.78;100154.03;5009733;28;20415;-69
2023/01/11 09:53:51;;;;;;;1.80;1.70;;;8.90;94.20;;;8.05;86.65;100148.69;5013889;28;20425;-68
2023/01/11 09:56:39;;;;;;;3.08;2.30;;;8.90;94.10;;;8.04;87.01;100151.53;5029232;28;20403;-68
2023/01/11 09:59:21;;;;;;;2.63;1.30;;;8.80;94.30;;;8.07;87.24;100162.72;5029233;28;20446;-68
2023/01/11 10:02:03;;;;;;;1.40;1.10;;;8.90;94.40;;;8.07;87.78;100164.53;5029569;28;20493;-69
2023/01/11 10:05:08;;;;;;;2.10;1.30;;;8.80;94.60;;;8.10;87.49;100150.91;5029398;28;20634;-70
2023/01/11 10:08:01;;;;;;;1.60;1.50;;;8.90;94.60;;;8.07;88.01;100151.22;5028939;28;20803;-68
2023/01/11 10:11:01;;;;;;;1.60;1.40;;;8.90;94.80;;;8.04;88.49;100146.22;5029277;28;20968;-69
2023/01/11 10:14:05;;;;;;;1.98;1.40;;;8.80;94.90;;;8.06;88.60;100152.19;5029232;28;20435;-69
2023/01/11 10:17:04;;;;;;;1.40;1.30;;;8.90;94.90;;;8.09;87.82;100159.88;5028690;28;20407;-69
2023/01/11 10:20:00;;;;;;;2.05;1.30;;;8.90;94.90;;;8.10;88.35;100165.06;5028717;28;20426;-70
2023/01/11 10:22:39;;;;;;;1.20;1.10;;;8.90;94.90;;;8.12;88.40;100164.88;5028911;28;20574;-69
2023/01/11 10:25:20;;;;;;;1.30;1.20;;;8.90;94.90;;;8.10;88.45;100165.06;5028584;28;20396;-69
2023/01/11 10:27:59;;;;;;;1.37;1.27;;;8.90;94.90;;;8.16;88.23;100166.25;5028748;28;20403;-69
2023/01/11 10:30:52;;;;;;;1.42;1.20;;;8.90;94.90;;;8.15;87.90;100170.75;5028654;28;20886;-69
2023/01/11 10:33:50;;;;;;;1.40;1.30;;;8.90;94.80;;;8.18;88.15;100159.75;5028935;28;20409;-70
2023/01/11 10:36:49;;;;;;;2.47;1.17;;;9.00;94.90;;;8.20;87.84;100148.09;5028087;28;21057;-69
2023/01/11 10:39:45;;;;;;;1.27;1.17;;;9.00;94.80;;;8.22;88.31;100146.13;5028485;28;20449;-69
2023/01/11 10:42:21;;;;;;;1.30;1.20;;;9.00;94.80;;;8.22;87.65;100143.47;5028414;28;20433;-71
2023/01/11 10:45:03;;;;;;;1.00;1.00;;;9.00;94.70;;;8.24;87.91;100152.97;5028665;28;20403;-69
2023/01/11 10:47:43;;;;;;;1.13;1.07;;;9.00;94.60;;;8.26;87.93;100148.31;5028010;28;20454;-69
2023/01/11 10:50:24;;;;;;;1.45;1.15;;;9.00;94.60;;;8.27;87.65;100147.31;5028690;28;20399;-70
2023/01/11 10:53:01;;;;;;;1.50;1.10;;;9.00;94.70;;;8.26;87.59;100147.47;5028803;28;20409;-69
2023/01/11 10:55:43;;;;;;;1.40;1.10;;;9.00;94.70;;;8.28;87.55;100146.34;5009351;28;20411;-69
2023/01/11 10:58:31;;;;;;;1.23;1.13;;;9.10;94.70;;;8.27;87.82;100144.66;5008713;28;20408;-70
2023/01/11 11:01:17;;;;;;;2.28;1.42;;;9.00;94.70;;;8.26;88.32;100145.63;5008846;28;20475;-70
2023/01/11 11:04:19;;;;;;;3.22;1.40;;;9.00;94.80;;;8.31;88.26;100143.38;5008521;28;20413;-69
2023/01/11 11:06:58;;;;;;;2.00;1.40;;;9.10;94.80;;;8.34;87.61;100156.38;5008364;28;20407;-70
2023/01/11 11:09:38;;;;;;;2.13;1.70;;;9.10;94.70;;;8.38;87.76;100139.06;5008614;28;20401;-71
2023/01/11 11:12:12;;;;;;;1.60;1.50;;;9.20;94.60;;;8.36;87.93;100135.72;5008675;28;20408;-70